Terminal Aerodrome Forecast
Issued by NWS Cleveland, OH

Home | Current Version | Previous Version | Text Only | Print | Product List | Glossary Off
Versions: 1 2 3 4 5 6 7 8 9 10 11 12 13 14 15

000
FTUS41 KCLE 192300
TAFERI
TAF
KERI 192323Z 2000/2024 30006KT P6SM BKN025
      TEMPO 2000/2001 SCT025=

USA.gov is the U.S. government's official web portal to all federal, state and local government web resources and services.